sensor_id;sensor_type;location;lat;lon;timestamp;temperature;humidity
14771;DHT22;7477;45.222;5.688;2022-10-22T00:01:15;16.40;99.90
14771;DHT22;7477;45.222;5.688;2022-10-22T00:04:34;16.30;99.90
14771;DHT22;7477;45.222;5.688;2022-10-22T00:07:53;16.30;99.90
14771;DHT22;7477;45.222;5.688;2022-10-22T00:11:14;16.30;99.90
14771;DHT22;7477;45.222;5.688;2022-10-22T00:14:35;16.30;99.90
14771;DHT22;7477;45.222;5.688;2022-10-22T00:17:54;16.30;99.90
14771;DHT22;7477;45.222;5.688;2022-10-22T00:21:13;16.40;99.90
14771;DHT22;7477;45.222;5.688;2022-10-22T00:24:33;16.30;99.90
14771;DHT22;7477;45.222;5.688;2022-10-22T00:27:53;16.20;99.90
14771;DHT22;7477;45.222;5.688;2022-10-22T00:31:12;16.20;99.90
14771;DHT22;7477;45.222;5.688;2022-10-22T00:34:33;16.20;99.90
14771;DHT22;7477;45.222;5.688;2022-10-22T00:37:53;16.20;99.90
14771;DHT22;7477;45.222;5.688;2022-10-22T00:41:13;16.30;99.90
14771;DHT22;7477;45.222;5.688;2022-10-22T00:48:29;16.20;99.90
14771;DHT22;7477;45.222;5.688;2022-10-22T00:51:49;16.20;99.90
14771;DHT22;7477;45.222;5.688;2022-10-22T00:55:08;16.20;99.90
14771;DHT22;7477;45.222;5.688;2022-10-22T00:58:30;16.20;99.90
14771;DHT22;7477;45.222;5.688;2022-10-22T01:01:52;16.20;99.90
14771;DHT22;7477;45.222;5.688;2022-10-22T01:05:11;16.10;99.90
14771;DHT22;7477;45.222;5.688;2022-10-22T01:16:03;16.20;99.90
14771;DHT22;7477;45.222;5.688;2022-10-22T01:19:48;16.10;99.90
14771;DHT22;7477;45.222;5.688;2022-10-22T01:30:28;16.20;99.90
14771;DHT22;7477;45.222;5.688;2022-10-22T01:33:49;16.10;99.90
14771;DHT22;7477;45.222;5.688;2022-10-22T01:37:11;16.10;99.90
14771;DHT22;7477;45.222;5.688;2022-10-22T01:40:33;16.10;99.90
14771;DHT22;7477;45.222;5.688;2022-10-22T01:43:53;16.10;99.90
14771;DHT22;7477;45.222;5.688;2022-10-22T02:05:12;16.10;99.90
14771;DHT22;7477;45.222;5.688;2022-10-22T02:08:34;16.10;99.90
14771;DHT22;7477;45.222;5.688;2022-10-22T02:11:56;16.00;99.90
14771;DHT22;7477;45.222;5.688;2022-10-22T02:15:17;16.00;99.90
14771;DHT22;7477;45.222;5.688;2022-10-22T02:18:41;16.00;99.90
14771;DHT22;7477;45.222;5.688;2022-10-22T02:22:01;16.00;99.90
14771;DHT22;7477;45.222;5.688;2022-10-22T02:25:22;16.00;99.90
14771;DHT22;7477;45.222;5.688;2022-10-22T02:32:17;16.20;99.90
14771;DHT22;7477;45.222;5.688;2022-10-22T02:35:40;16.40;99.90
14771;DHT22;7477;45.222;5.688;2022-10-22T02:39:00;16.50;99.90
14771;DHT22;7477;45.222;5.688;2022-10-22T02:42:22;16.40;99.90
14771;DHT22;7477;45.222;5.688;2022-10-22T02:45:42;16.20;99.90
14771;DHT22;7477;45.222;5.688;2022-10-22T02:49:01;16.10;99.90
14771;DHT22;7477;45.222;5.688;2022-10-22T02:52:20;16.10;99.90
14771;DHT22;7477;45.222;5.688;2022-10-22T02:55:39;16.10;99.90
14771;DHT22;7477;45.222;5.688;2022-10-22T02:58:58;16.00;99.90
14771;DHT22;7477;45.222;5.688;2022-10-22T03:02:18;16.00;99.90
14771;DHT22;7477;45.222;5.688;2022-10-22T03:05:37;16.30;99.90
14771;DHT22;7477;45.222;5.688;2022-10-22T03:08:56;16.20;99.90
14771;DHT22;7477;45.222;5.688;2022-10-22T03:12:15;16.30;99.90
14771;DHT22;7477;45.222;5.688;2022-10-22T03:15:35;16.20;99.90
14771;DHT22;7477;45.222;5.688;2022-10-22T03:18:53;16.20;99.90
14771;DHT22;7477;45.222;5.688;2022-10-22T03:22:16;16.20;99.90
14771;DHT22;7477;45.222;5.688;2022-10-22T03:25:39;16.40;99.90
14771;DHT22;7477;45.222;5.688;2022-10-22T03:29:00;16.50;99.90
14771;DHT22;7477;45.222;5.688;2022-10-22T03:32:20;16.60;99.90
14771;DHT22;7477;45.222;5.688;2022-10-22T03:35:43;16.30;99.90
14771;DHT22;7477;45.222;5.688;2022-10-22T03:39:04;16.20;99.90
14771;DHT22;7477;45.222;5.688;2022-10-22T03:42:23;16.30;99.90
14771;DHT22;7477;45.222;5.688;2022-10-22T03:45:43;16.20;99.90
14771;DHT22;7477;45.222;5.688;2022-10-22T03:49:02;16.10;99.90
14771;DHT22;7477;45.222;5.688;2022-10-22T03:52:22;16.20;99.90
14771;DHT22;7477;45.222;5.688;2022-10-22T03:55:41;16.00;99.90
14771;DHT22;7477;45.222;5.688;2022-10-22T03:59:01;16.00;99.90
14771;DHT22;7477;45.222;5.688;2022-10-22T04:02:20;16.00;99.90
14771;DHT22;7477;45.222;5.688;2022-10-22T04:05:40;16.00;99.90
14771;DHT22;7477;45.222;5.688;2022-10-22T04:08:59;16.00;99.90
14771;DHT22;7477;45.222;5.688;2022-10-22T04:12:19;16.00;99.90
14771;DHT22;7477;45.222;5.688;2022-10-22T04:15:38;16.00;99.90
14771;DHT22;7477;45.222;5.688;2022-10-22T04:18:57;16.20;99.90
14771;DHT22;7477;45.222;5.688;2022-10-22T04:22:17;16.00;99.90
14771;DHT22;7477;45.222;5.688;2022-10-22T04:25:36;15.90;99.90
14771;DHT22;7477;45.222;5.688;2022-10-22T04:28:55;15.80;99.90
14771;DHT22;7477;45.222;5.688;2022-10-22T04:32:14;15.80;99.90
14771;DHT22;7477;45.222;5.688;2022-10-22T04:35:37;15.80;99.90
14771;DHT22;7477;45.222;5.688;2022-10-22T04:38:59;15.70;99.90
14771;DHT22;7477;45.222;5.688;2022-10-22T04:42:19;15.80;99.90
14771;DHT22;7477;45.222;5.688;2022-10-22T04:45:38;15.70;99.90
14771;DHT22;7477;45.222;5.688;2022-10-22T04:48:57;15.60;99.90
14771;DHT22;7477;45.222;5.688;2022-10-22T04:52:17;15.60;99.90
14771;DHT22;7477;45.222;5.688;2022-10-22T04:55:36;15.60;99.90
14771;DHT22;7477;45.222;5.688;2022-10-22T04:59:00;15.60;99.90
14771;DHT22;7477;45.222;5.688;2022-10-22T05:02:20;15.60;99.90
14771;DHT22;7477;45.222;5.688;2022-10-22T05:05:39;15.60;99.90
14771;DHT22;7477;45.222;5.688;2022-10-22T05:09:04;15.50;99.90
14771;DHT22;7477;45.222;5.688;2022-10-22T05:12:23;15.60;99.90
14771;DHT22;7477;45.222;5.688;2022-10-22T05:15:42;15.80;99.90
14771;DHT22;7477;45.222;5.688;2022-10-22T05:19:01;15.60;99.90
14771;DHT22;7477;45.222;5.688;2022-10-22T05:22:21;15.60;99.90
14771;DHT22;7477;45.222;5.688;2022-10-22T05:25:40;15.50;99.90
14771;DHT22;7477;45.222;5.688;2022-10-22T05:28:59;15.50;99.90
14771;DHT22;7477;45.222;5.688;2022-10-22T05:32:18;15.40;99.90
14771;DHT22;7477;45.222;5.688;2022-10-22T05:35:37;15.30;99.90
14771;DHT22;7477;45.222;5.688;2022-10-22T05:38:57;15.30;99.90
14771;DHT22;7477;45.222;5.688;2022-10-22T05:42:16;15.30;99.90
14771;DHT22;7477;45.222;5.688;2022-10-22T05:45:40;15.30;99.90
14771;DHT22;7477;45.222;5.688;2022-10-22T05:49:02;15.20;99.90
14771;DHT22;7477;45.222;5.688;2022-10-22T05:52:22;15.10;99.90
14771;DHT22;7477;45.222;5.688;2022-10-22T05:55:41;15.20;99.90
14771;DHT22;7477;45.222;5.688;2022-10-22T05:59:01;15.20;99.90
14771;DHT22;7477;45.222;5.688;2022-10-22T06:02:20;15.30;99.90
14771;DHT22;7477;45.222;5.688;2022-10-22T06:05:39;15.60;99.90
14771;DHT22;7477;45.222;5.688;2022-10-22T06:09:04;15.40;99.90
14771;DHT22;7477;45.222;5.688;2022-10-22T06:12:25;15.40;99.90
14771;DHT22;7477;45.222;5.688;2022-10-22T06:15:44;15.40;99.90
14771;DHT22;7477;45.222;5.688;2022-10-22T06:19:03;15.40;99.90
14771;DHT22;7477;45.222;5.688;2022-10-22T06:22:23;15.30;99.90
14771;DHT22;7477;45.222;5.688;2022-10-22T06:25:42;15.50;99.90
14771;DHT22;7477;45.222;5.688;2022-10-22T06:29:02;15.30;99.90
14771;DHT22;7477;45.222;5.688;2022-10-22T06:32:22;15.20;99.90
14771;DHT22;7477;45.222;5.688;2022-10-22T06:35:41;15.30;99.90
14771;DHT22;7477;45.222;5.688;2022-10-22T06:39:01;15.20;99.90
14771;DHT22;7477;45.222;5.688;2022-10-22T06:42:20;15.20;99.90
14771;DHT22;7477;45.222;5.688;2022-10-22T06:45:40;15.10;99.90
14771;DHT22;7477;45.222;5.688;2022-10-22T06:49:01;15.00;99.90
14771;DHT22;7477;45.222;5.688;2022-10-22T06:52:21;15.00;99.90
14771;DHT22;7477;45.222;5.688;2022-10-22T06:55:40;15.10;99.90
14771;DHT22;7477;45.222;5.688;2022-10-22T06:59:00;15.00;99.90
14771;DHT22;7477;45.222;5.688;2022-10-22T07:02:19;15.00;99.90
14771;DHT22;7477;45.222;5.688;2022-10-22T07:05:39;15.00;99.90
14771;DHT22;7477;45.222;5.688;2022-10-22T07:08:59;15.00;99.90
14771;DHT22;7477;45.222;5.688;2022-10-22T07:12:18;14.90;99.90
14771;DHT22;7477;45.222;5.688;2022-10-22T07:15:37;14.90;99.90
14771;DHT22;7477;45.222;5.688;2022-10-22T07:18:56;15.00;99.90
14771;DHT22;7477;45.222;5.688;2022-10-22T07:22:15;15.00;99.90
14771;DHT22;7477;45.222;5.688;2022-10-22T07:25:35;14.90;99.90
14771;DHT22;7477;45.222;5.688;2022-10-22T07:28:54;15.00;99.90
14771;DHT22;7477;45.222;5.688;2022-10-22T07:32:13;15.00;99.90
14771;DHT22;7477;45.222;5.688;2022-10-22T07:35:32;15.00;99.90
14771;DHT22;7477;45.222;5.688;2022-10-22T07:38:55;15.00;99.90
14771;DHT22;7477;45.222;5.688;2022-10-22T07:42:15;15.00;99.90
14771;DHT22;7477;45.222;5.688;2022-10-22T07:45:34;15.00;99.90
14771;DHT22;7477;45.222;5.688;2022-10-22T07:48:53;14.90;99.90
14771;DHT22;7477;45.222;5.688;2022-10-22T07:52:12;15.00;99.90
14771;DHT22;7477;45.222;5.688;2022-10-22T07:55:32;15.10;99.90
14771;DHT22;7477;45.222;5.688;2022-10-22T07:58:52;15.20;99.90
14771;DHT22;7477;45.222;5.688;2022-10-22T08:02:11;15.50;99.90
14771;DHT22;7477;45.222;5.688;2022-10-22T08:05:30;16.10;99.90
14771;DHT22;7477;45.222;5.688;2022-10-22T08:08:50;15.60;99.90
14771;DHT22;7477;45.222;5.688;2022-10-22T08:12:10;15.40;99.90
14771;DHT22;7477;45.222;5.688;2022-10-22T08:15:29;15.60;99.90
14771;DHT22;7477;45.222;5.688;2022-10-22T08:18:49;15.70;99.90
14771;DHT22;7477;45.222;5.688;2022-10-22T08:22:09;15.70;99.90
14771;DHT22;7477;45.222;5.688;2022-10-22T08:25:28;15.60;99.90
14771;DHT22;7477;45.222;5.688;2022-10-22T08:28:47;16.20;99.90
14771;DHT22;7477;45.222;5.688;2022-10-22T08:32:06;15.80;99.90
14771;DHT22;7477;45.222;5.688;2022-10-22T08:35:26;15.50;99.90
14771;DHT22;7477;45.222;5.688;2022-10-22T08:38:45;15.40;99.90
14771;DHT22;7477;45.222;5.688;2022-10-22T08:49:34;16.30;99.90
14771;DHT22;7477;45.222;5.688;2022-10-22T08:52:56;15.70;99.90
14771;DHT22;7477;45.222;5.688;2022-10-22T08:56:17;15.60;99.90
14771;DHT22;7477;45.222;5.688;2022-10-22T08:59:47;15.60;99.90
14771;DHT22;7477;45.222;5.688;2022-10-22T09:06:57;15.80;99.90
14771;DHT22;7477;45.222;5.688;2022-10-22T09:10:19;15.80;99.90
14771;DHT22;7477;45.222;5.688;2022-10-22T09:13:42;15.90;99.90
14771;DHT22;7477;45.222;5.688;2022-10-22T09:17:34;15.80;99.90
14771;DHT22;7477;45.222;5.688;2022-10-22T09:21:02;15.90;99.90
14771;DHT22;7477;45.222;5.688;2022-10-22T09:24:30;16.10;99.90
14771;DHT22;7477;45.222;5.688;2022-10-22T09:27:53;16.10;99.90
14771;DHT22;7477;45.222;5.688;2022-10-22T09:31:16;16.00;99.90
14771;DHT22;7477;45.222;5.688;2022-10-22T09:34:35;16.10;99.90
14771;DHT22;7477;45.222;5.688;2022-10-22T09:37:55;16.30;99.90
14771;DHT22;7477;45.222;5.688;2022-10-22T09:41:16;16.50;99.90
14771;DHT22;7477;45.222;5.688;2022-10-22T09:44:37;16.40;99.90
14771;DHT22;7477;45.222;5.688;2022-10-22T09:51:54;16.30;99.90
14771;DHT22;7477;45.222;5.688;2022-10-22T09:55:16;16.20;99.90
14771;DHT22;7477;45.222;5.688;2022-10-22T09:58:45;16.40;99.90
14771;DHT22;7477;45.222;5.688;2022-10-22T10:02:11;16.50;99.90
14771;DHT22;7477;45.222;5.688;2022-10-22T10:05:33;16.40;99.90
14771;DHT22;7477;45.222;5.688;2022-10-22T10:08:53;16.40;99.90
14771;DHT22;7477;45.222;5.688;2022-10-22T10:15:47;16.50;99.90
14771;DHT22;7477;45.222;5.688;2022-10-22T10:23:18;16.80;99.90
14771;DHT22;7477;45.222;5.688;2022-10-22T10:30:21;16.70;99.90
14771;DHT22;7477;45.222;5.688;2022-10-22T10:41:55;16.60;99.90
14771;DHT22;7477;45.222;5.688;2022-10-22T10:56:00;17.10;99.90
14771;DHT22;7477;45.222;5.688;2022-10-22T11:03:37;17.30;99.90
14771;DHT22;7477;45.222;5.688;2022-10-22T11:07:02;17.30;99.90
14771;DHT22;7477;45.222;5.688;2022-10-22T11:17:48;17.20;99.90
14771;DHT22;7477;45.222;5.688;2022-10-22T11:21:24;17.30;99.90
14771;DHT22;7477;45.222;5.688;2022-10-22T11:28:39;17.20;99.90
14771;DHT22;7477;45.222;5.688;2022-10-22T11:32:00;17.30;99.90
14771;DHT22;7477;45.222;5.688;2022-10-22T11:35:27;17.20;99.90
14771;DHT22;7477;45.222;5.688;2022-10-22T11:38:49;17.30;99.90
14771;DHT22;7477;45.222;5.688;2022-10-22T11:42:16;17.50;99.90
14771;DHT22;7477;45.222;5.688;2022-10-22T11:45:41;17.30;99.90
14771;DHT22;7477;45.222;5.688;2022-10-22T11:55:53;17.50;99.90
14771;DHT22;7477;45.222;5.688;2022-10-22T12:07:00;17.60;99.90
14771;DHT22;7477;45.222;5.688;2022-10-22T12:10:25;17.60;99.90
14771;DHT22;7477;45.222;5.688;2022-10-22T12:17:22;17.70;99.90
14771;DHT22;7477;45.222;5.688;2022-10-22T12:20:42;17.80;99.90
14771;DHT22;7477;45.222;5.688;2022-10-22T12:24:01;17.80;99.90
14771;DHT22;7477;45.222;5.688;2022-10-22T12:30:46;18.00;99.90
14771;DHT22;7477;45.222;5.688;2022-10-22T12:34:05;17.80;99.90
14771;DHT22;7477;45.222;5.688;2022-10-22T12:37:24;17.80;99.90
14771;DHT22;7477;45.222;5.688;2022-10-22T12:40:44;17.90;99.90
14771;DHT22;7477;45.222;5.688;2022-10-22T12:44:05;18.10;99.90
14771;DHT22;7477;45.222;5.688;2022-10-22T12:47:24;18.00;99.90
14771;DHT22;7477;45.222;5.688;2022-10-22T12:50:49;18.10;99.90
14771;DHT22;7477;45.222;5.688;2022-10-22T12:57:39;18.00;99.90
14771;DHT22;7477;45.222;5.688;2022-10-22T13:00:58;17.90;99.90
14771;DHT22;7477;45.222;5.688;2022-10-22T13:08:09;17.90;99.90
14771;DHT22;7477;45.222;5.688;2022-10-22T13:11:41;18.20;99.90
14771;DHT22;7477;45.222;5.688;2022-10-22T13:15:41;18.10;99.90
14771;DHT22;7477;45.222;5.688;2022-10-22T13:19:01;18.10;99.90
14771;DHT22;7477;45.222;5.688;2022-10-22T13:22:51;18.20;99.90
14771;DHT22;7477;45.222;5.688;2022-10-22T13:26:16;18.60;99.90
14771;DHT22;7477;45.222;5.688;2022-10-22T13:29:36;18.40;99.90
14771;DHT22;7477;45.222;5.688;2022-10-22T13:33:01;18.20;99.90
14771;DHT22;7477;45.222;5.688;2022-10-22T13:36:21;18.10;99.90
14771;DHT22;7477;45.222;5.688;2022-10-22T13:39:40;18.20;99.90
14771;DHT22;7477;45.222;5.688;2022-10-22T13:42:59;18.10;99.90
14771;DHT22;7477;45.222;5.688;2022-10-22T13:46:20;18.30;99.90
14771;DHT22;7477;45.222;5.688;2022-10-22T13:49:40;18.60;99.90
14771;DHT22;7477;45.222;5.688;2022-10-22T13:53:02;18.80;99.90
14771;DHT22;7477;45.222;5.688;2022-10-22T13:56:23;18.70;99.90
14771;DHT22;7477;45.222;5.688;2022-10-22T13:59:43;18.70;99.90
14771;DHT22;7477;45.222;5.688;2022-10-22T14:03:03;18.60;99.90
14771;DHT22;7477;45.222;5.688;2022-10-22T14:06:25;18.60;99.90
14771;DHT22;7477;45.222;5.688;2022-10-22T14:09:46;18.80;99.90
14771;DHT22;7477;45.222;5.688;2022-10-22T14:13:13;18.80;99.90
14771;DHT22;7477;45.222;5.688;2022-10-22T14:16:33;18.80;99.90
14771;DHT22;7477;45.222;5.688;2022-10-22T14:19:53;18.70;99.90
14771;DHT22;7477;45.222;5.688;2022-10-22T14:23:15;18.80;99.90
14771;DHT22;7477;45.222;5.688;2022-10-22T14:26:36;18.70;99.90
14771;DHT22;7477;45.222;5.688;2022-10-22T14:29:55;18.80;99.90
14771;DHT22;7477;45.222;5.688;2022-10-22T14:33:18;18.80;99.90
14771;DHT22;7477;45.222;5.688;2022-10-22T14:36:38;19.80;99.90
14771;DHT22;7477;45.222;5.688;2022-10-22T14:39:57;19.50;99.90
14771;DHT22;7477;45.222;5.688;2022-10-22T14:43:26;19.80;99.90
14771;DHT22;7477;45.222;5.688;2022-10-22T14:46:46;19.30;99.90
14771;DHT22;7477;45.222;5.688;2022-10-22T14:50:05;19.10;99.90
14771;DHT22;7477;45.222;5.688;2022-10-22T14:53:26;19.00;99.90
14771;DHT22;7477;45.222;5.688;2022-10-22T14:56:45;18.90;99.90
14771;DHT22;7477;45.222;5.688;2022-10-22T15:00:07;19.00;99.90
14771;DHT22;7477;45.222;5.688;2022-10-22T15:03:26;19.00;99.90
14771;DHT22;7477;45.222;5.688;2022-10-22T15:06:46;19.40;99.90
14771;DHT22;7477;45.222;5.688;2022-10-22T15:10:06;19.30;99.90
14771;DHT22;7477;45.222;5.688;2022-10-22T15:13:26;19.20;99.90
14771;DHT22;7477;45.222;5.688;2022-10-22T15:16:46;19.00;99.90
14771;DHT22;7477;45.222;5.688;2022-10-22T15:20:06;19.10;99.90
14771;DHT22;7477;45.222;5.688;2022-10-22T15:23:26;19.00;99.90
14771;DHT22;7477;45.222;5.688;2022-10-22T15:26:46;19.00;99.90
14771;DHT22;7477;45.222;5.688;2022-10-22T15:30:06;19.00;99.90
14771;DHT22;7477;45.222;5.688;2022-10-22T15:33:27;19.10;99.90
14771;DHT22;7477;45.222;5.688;2022-10-22T15:36:46;19.10;99.90
14771;DHT22;7477;45.222;5.688;2022-10-22T15:40:06;19.10;99.90
14771;DHT22;7477;45.222;5.688;2022-10-22T15:43:27;19.10;99.90
14771;DHT22;7477;45.222;5.688;2022-10-22T15:46:46;19.00;99.90
14771;DHT22;7477;45.222;5.688;2022-10-22T15:50:06;19.00;99.90
14771;DHT22;7477;45.222;5.688;2022-10-22T15:53:25;19.20;99.90
14771;DHT22;7477;45.222;5.688;2022-10-22T15:56:45;19.10;99.90
14771;DHT22;7477;45.222;5.688;2022-10-22T16:00:05;19.10;99.90
14771;DHT22;7477;45.222;5.688;2022-10-22T16:03:25;19.10;99.90
14771;DHT22;7477;45.222;5.688;2022-10-22T16:06:47;19.10;99.90
14771;DHT22;7477;45.222;5.688;2022-10-22T16:10:07;19.10;99.90
14771;DHT22;7477;45.222;5.688;2022-10-22T16:13:27;19.00;99.90
14771;DHT22;7477;45.222;5.688;2022-10-22T16:16:49;19.00;99.90
14771;DHT22;7477;45.222;5.688;2022-10-22T16:20:09;19.00;99.90
14771;DHT22;7477;45.222;5.688;2022-10-22T16:23:28;18.90;99.90
14771;DHT22;7477;45.222;5.688;2022-10-22T16:26:48;18.90;99.90
14771;DHT22;7477;45.222;5.688;2022-10-22T16:30:08;18.90;99.90
14771;DHT22;7477;45.222;5.688;2022-10-22T16:33:27;18.90;99.90
14771;DHT22;7477;45.222;5.688;2022-10-22T16:36:46;18.80;99.90
14771;DHT22;7477;45.222;5.688;2022-10-22T16:40:07;18.80;99.90
14771;DHT22;7477;45.222;5.688;2022-10-22T16:43:28;18.80;99.90
14771;DHT22;7477;45.222;5.688;2022-10-22T16:46:47;18.80;99.90
14771;DHT22;7477;45.222;5.688;2022-10-22T16:50:07;18.70;99.90
14771;DHT22;7477;45.222;5.688;2022-10-22T16:53:26;18.70;99.90
14771;DHT22;7477;45.222;5.688;2022-10-22T16:56:46;18.70;99.90
14771;DHT22;7477;45.222;5.688;2022-10-22T17:00:05;18.60;99.90
14771;DHT22;7477;45.222;5.688;2022-10-22T17:03:25;18.60;99.90
14771;DHT22;7477;45.222;5.688;2022-10-22T17:06:44;18.60;99.90
14771;DHT22;7477;45.222;5.688;2022-10-22T17:10:04;18.50;99.90
14771;DHT22;7477;45.222;5.688;2022-10-22T17:13:24;18.50;99.90
14771;DHT22;7477;45.222;5.688;2022-10-22T17:16:43;18.50;99.90
14771;DHT22;7477;45.222;5.688;2022-10-22T17:20:03;18.50;99.90
14771;DHT22;7477;45.222;5.688;2022-10-22T17:23:24;18.50;99.90
14771;DHT22;7477;45.222;5.688;2022-10-22T17:26:43;18.40;99.90
14771;DHT22;7477;45.222;5.688;2022-10-22T17:30:04;18.30;99.90
14771;DHT22;7477;45.222;5.688;2022-10-22T17:33:24;18.20;99.90
14771;DHT22;7477;45.222;5.688;2022-10-22T17:36:43;18.10;99.90
14771;DHT22;7477;45.222;5.688;2022-10-22T17:40:04;18.00;99.90
14771;DHT22;7477;45.222;5.688;2022-10-22T17:43:23;18.00;99.90
14771;DHT22;7477;45.222;5.688;2022-10-22T17:46:43;18.00;99.90
14771;DHT22;7477;45.222;5.688;2022-10-22T17:50:03;17.90;99.90
14771;DHT22;7477;45.222;5.688;2022-10-22T17:53:22;17.90;99.90
14771;DHT22;7477;45.222;5.688;2022-10-22T17:56:42;17.80;99.90
14771;DHT22;7477;45.222;5.688;2022-10-22T18:00:01;17.70;99.90
14771;DHT22;7477;45.222;5.688;2022-10-22T18:03:20;17.70;99.90
14771;DHT22;7477;45.222;5.688;2022-10-22T18:06:41;17.70;99.90
14771;DHT22;7477;45.222;5.688;2022-10-22T18:10:00;17.70;99.90
14771;DHT22;7477;45.222;5.688;2022-10-22T18:13:19;17.60;99.90
14771;DHT22;7477;45.222;5.688;2022-10-22T18:16:39;17.50;99.90
14771;DHT22;7477;45.222;5.688;2022-10-22T18:19:58;17.50;99.90
14771;DHT22;7477;45.222;5.688;2022-10-22T18:23:18;17.40;99.90
14771;DHT22;7477;45.222;5.688;2022-10-22T18:26:37;17.40;99.90
14771;DHT22;7477;45.222;5.688;2022-10-22T18:29:56;17.30;99.90
14771;DHT22;7477;45.222;5.688;2022-10-22T18:33:17;17.30;99.90
14771;DHT22;7477;45.222;5.688;2022-10-22T18:36:37;17.20;99.90
14771;DHT22;7477;45.222;5.688;2022-10-22T18:39:58;17.20;99.90
14771;DHT22;7477;45.222;5.688;2022-10-22T18:43:17;17.10;99.90
14771;DHT22;7477;45.222;5.688;2022-10-22T18:46:37;17.10;99.90
14771;DHT22;7477;45.222;5.688;2022-10-22T18:49:57;16.90;99.90
14771;DHT22;7477;45.222;5.688;2022-10-22T18:53:17;17.00;99.90
14771;DHT22;7477;45.222;5.688;2022-10-22T18:56:38;16.90;99.90
14771;DHT22;7477;45.222;5.688;2022-10-22T18:59:58;16.90;99.90
14771;DHT22;7477;45.222;5.688;2022-10-22T19:03:17;16.90;99.90
14771;DHT22;7477;45.222;5.688;2022-10-22T19:06:37;16.90;99.90
14771;DHT22;7477;45.222;5.688;2022-10-22T19:09:57;16.80;99.90
14771;DHT22;7477;45.222;5.688;2022-10-22T19:13:17;16.80;99.90
14771;DHT22;7477;45.222;5.688;2022-10-22T19:16:37;16.70;99.90
14771;DHT22;7477;45.222;5.688;2022-10-22T19:19:56;16.80;99.90
14771;DHT22;7477;45.222;5.688;2022-10-22T19:23:16;16.70;99.90
14771;DHT22;7477;45.222;5.688;2022-10-22T19:26:35;16.90;99.90
14771;DHT22;7477;45.222;5.688;2022-10-22T19:29:55;17.10;99.90
14771;DHT22;7477;45.222;5.688;2022-10-22T19:33:14;16.80;99.90
14771;DHT22;7477;45.222;5.688;2022-10-22T19:36:33;16.60;99.90
14771;DHT22;7477;45.222;5.688;2022-10-22T19:39:53;16.50;99.90
14771;DHT22;7477;45.222;5.688;2022-10-22T19:43:12;16.50;99.90
14771;DHT22;7477;45.222;5.688;2022-10-22T19:46:32;16.50;99.90
14771;DHT22;7477;45.222;5.688;2022-10-22T19:49:51;16.50;99.90
14771;DHT22;7477;45.222;5.688;2022-10-22T19:53:11;16.50;99.90
14771;DHT22;7477;45.222;5.688;2022-10-22T19:56:31;16.40;99.90
14771;DHT22;7477;45.222;5.688;2022-10-22T19:59:51;16.40;99.90
14771;DHT22;7477;45.222;5.688;2022-10-22T20:03:12;16.40;99.90
14771;DHT22;7477;45.222;5.688;2022-10-22T20:06:32;16.40;99.90
14771;DHT22;7477;45.222;5.688;2022-10-22T20:09:51;16.40;99.90
14771;DHT22;7477;45.222;5.688;2022-10-22T20:13:10;16.20;99.90
14771;DHT22;7477;45.222;5.688;2022-10-22T20:16:30;16.30;99.90
14771;DHT22;7477;45.222;5.688;2022-10-22T20:19:49;16.20;99.90
14771;DHT22;7477;45.222;5.688;2022-10-22T20:23:09;16.20;99.90
14771;DHT22;7477;45.222;5.688;2022-10-22T20:26:28;16.20;99.90
14771;DHT22;7477;45.222;5.688;2022-10-22T20:29:49;16.20;99.90
14771;DHT22;7477;45.222;5.688;2022-10-22T20:33:08;16.10;99.90
14771;DHT22;7477;45.222;5.688;2022-10-22T20:36:29;16.20;99.90
14771;DHT22;7477;45.222;5.688;2022-10-22T20:39:49;16.10;99.90
14771;DHT22;7477;45.222;5.688;2022-10-22T20:43:08;16.10;99.90
14771;DHT22;7477;45.222;5.688;2022-10-22T20:46:30;16.10;99.90
14771;DHT22;7477;45.222;5.688;2022-10-22T20:49:49;16.10;99.90
14771;DHT22;7477;45.222;5.688;2022-10-22T20:53:09;16.00;99.90
14771;DHT22;7477;45.222;5.688;2022-10-22T20:56:29;16.00;99.90
14771;DHT22;7477;45.222;5.688;2022-10-22T20:59:48;16.00;99.90
14771;DHT22;7477;45.222;5.688;2022-10-22T21:03:08;16.00;99.90
14771;DHT22;7477;45.222;5.688;2022-10-22T21:06:28;16.00;99.90
14771;DHT22;7477;45.222;5.688;2022-10-22T21:09:47;16.00;99.90
14771;DHT22;7477;45.222;5.688;2022-10-22T21:13:06;16.00;99.90
14771;DHT22;7477;45.222;5.688;2022-10-22T21:16:25;16.00;99.90
14771;DHT22;7477;45.222;5.688;2022-10-22T21:19:45;15.90;99.90
14771;DHT22;7477;45.222;5.688;2022-10-22T21:23:04;15.90;99.90
14771;DHT22;7477;45.222;5.688;2022-10-22T21:26:24;15.80;99.90
14771;DHT22;7477;45.222;5.688;2022-10-22T21:29:43;15.90;99.90
14771;DHT22;7477;45.222;5.688;2022-10-22T21:33:02;15.80;99.90
14771;DHT22;7477;45.222;5.688;2022-10-22T21:36:22;15.80;99.90
14771;DHT22;7477;45.222;5.688;2022-10-22T21:39:42;15.80;99.90
14771;DHT22;7477;45.222;5.688;2022-10-22T21:43:01;15.70;99.90
14771;DHT22;7477;45.222;5.688;2022-10-22T21:46:25;15.70;99.90
14771;DHT22;7477;45.222;5.688;2022-10-22T21:49:45;15.70;99.90
14771;DHT22;7477;45.222;5.688;2022-10-22T21:53:05;15.70;99.90
14771;DHT22;7477;45.222;5.688;2022-10-22T21:56:28;15.60;99.90
14771;DHT22;7477;45.222;5.688;2022-10-22T21:59:48;15.70;99.90
14771;DHT22;7477;45.222;5.688;2022-10-22T22:03:07;15.60;99.90
14771;DHT22;7477;45.222;5.688;2022-10-22T22:06:28;15.60;99.90
14771;DHT22;7477;45.222;5.688;2022-10-22T22:09:49;15.60;99.90
14771;DHT22;7477;45.222;5.688;2022-10-22T22:13:08;15.60;99.90
14771;DHT22;7477;45.222;5.688;2022-10-22T22:16:30;15.50;99.90
14771;DHT22;7477;45.222;5.688;2022-10-22T22:19:49;15.50;99.90
14771;DHT22;7477;45.222;5.688;2022-10-22T22:23:08;15.60;99.90
14771;DHT22;7477;45.222;5.688;2022-10-22T22:26:28;15.60;99.90
14771;DHT22;7477;45.222;5.688;2022-10-22T22:29:47;15.60;99.90
14771;DHT22;7477;45.222;5.688;2022-10-22T22:33:06;15.50;99.90
14771;DHT22;7477;45.222;5.688;2022-10-22T22:36:26;15.50;99.90
14771;DHT22;7477;45.222;5.688;2022-10-22T22:39:46;15.50;99.90
14771;DHT22;7477;45.222;5.688;2022-10-22T22:43:07;15.50;99.90
14771;DHT22;7477;45.222;5.688;2022-10-22T22:46:27;15.60;99.90
14771;DHT22;7477;45.222;5.688;2022-10-22T22:49:46;15.50;99.90
14771;DHT22;7477;45.222;5.688;2022-10-22T22:53:06;15.60;99.90
14771;DHT22;7477;45.222;5.688;2022-10-22T22:56:28;15.50;99.90
14771;DHT22;7477;45.222;5.688;2022-10-22T22:59:51;15.50;99.90
14771;DHT22;7477;45.222;5.688;2022-10-22T23:03:10;15.40;99.90
14771;DHT22;7477;45.222;5.688;2022-10-22T23:06:32;15.40;99.90
14771;DHT22;7477;45.222;5.688;2022-10-22T23:09:52;15.30;99.90
14771;DHT22;7477;45.222;5.688;2022-10-22T23:13:11;15.30;99.90
14771;DHT22;7477;45.222;5.688;2022-10-22T23:16:32;15.30;99.90
14771;DHT22;7477;45.222;5.688;2022-10-22T23:19:51;15.20;99.90
14771;DHT22;7477;45.222;5.688;2022-10-22T23:23:11;15.20;99.90
14771;DHT22;7477;45.222;5.688;2022-10-22T23:26:34;15.10;99.90
14771;DHT22;7477;45.222;5.688;2022-10-22T23:29:54;15.10;99.90
14771;DHT22;7477;45.222;5.688;2022-10-22T23:33:14;15.10;99.90
14771;DHT22;7477;45.222;5.688;2022-10-22T23:36:35;15.10;99.90